Latest Weather Observations for Fortescue Dave Forrest

IDW60801

Issued at 4:33 pm WST Friday 20 October 2017 (issued every 30 minutes, with the page automatically refreshed every 10 minutes)

About weather observations | Map of weather stations | Latest weather observations for WA | Other Formats
Station Details ID: 505056 Name: FORTESCUE DAVE FORREST Lat: -22.29 Lon: 119.43 Height: 474.6 m
Data from the previous 72 hours. | See also: Recent months for locations in Western Australia
Date/Time
WST
Temp
°C
App
Temp
°C
Dew
Point
°C
Rel
Hum
%
Delta-T
°C
Wind Press
QNH
hPa
Press
MSL
hPa
Rain since
9am
mm
Dir  Spd
km/h
Gust
km/h
Spd
kts
Gust
kts
20/04:30pm 37.3 32.7 6.3 15 17.5 ESE 20 32 11 17 1014.5 1011.5 0.0
20/04:00pm 38.6 33.2 6.3 14 18.3 E 24 35 13 19 1014.4 1011.4 0.0
20/03:30pm 38.4 33.9 6.2 14 18.2 ESE 19 30 10 16 1014.5 1011.5 0.0
20/03:00pm 38.3 33.0 5.0 13 18.5 ESE 22 37 12 20 1014.6 1011.6 0.0
20/02:30pm 38.3 32.8 6.1 14 18.2 SE 24 41 13 22 1014.8 1011.8 0.0
20/02:00pm 38.5 33.6 5.2 13 18.6 SE 20 35 11 19 1015.0 1012.0 0.0
20/01:30pm 38.0 32.7 4.8 13 18.3 ESE 22 39 12 21 1015.4 1012.5 0.0
20/01:00pm 37.9 32.5 4.7 13 18.3 SE 22 37 12 20 1016.0 1013.0 0.0
20/12:30pm 37.7 31.9 4.6 13 18.2 ESE 24 35 13 19 1016.3 1013.3 0.0
20/12:00pm 36.5 30.6 5.7 15 17.1 ESE 26 41 14 22 1016.8 1013.8 0.0
20/11:30am 36.6 30.7 5.8 15 17.2 ESE 26 39 14 21 1017.2 1014.3 0.0
20/11:00am 34.4 27.7 5.8 17 15.7 ESE 30 39 16 21 1017.7 1014.8 0.0
20/10:30am 33.7 27.1 6.1 18 15.2 ESE 30 39 16 21 1018.2 1015.2 0.0
20/10:00am 31.8 26.9 6.8 21 13.8 SE 22 32 12 17 1018.6 1015.6 0.0
20/09:30am 30.3 24.6 6.9 23 12.9 ESE 26 39 14 21 1019.0 1016.1 0.0
20/09:00am 28.6 23.4 7.2 26 11.7 SE 24 37 13 20 1019.1 1016.2 0.0
20/08:30am 27.4 21.7 6.8 27 11.1 SE 26 37 14 20 1019.2 1016.3 0.0
20/08:00am 25.9 19.9 7.0 30 10.1 SE 28 37 15 20 1019.1 1016.2 0.0
20/07:30am 24.5 18.9 7.2 33 9.3 SE 26 37 14 20 1019.0 1016.1 0.0
20/07:00am 23.6 19.1 6.8 34 8.9 SE 20 35 11 19 1018.8 1015.8 0.0
20/06:30am 22.6 18.3 7.2 37 8.2 SE 19 32 10 17 1018.6 1015.6 0.0
20/06:00am 21.9 18.0 7.3 39 7.7 SE 17 26 9 14 1018.2 1015.2 0.0
20/05:30am 21.7 17.8 7.2 39 7.6 SE 17 28 9 15 1017.8 1014.9 0.0
20/05:00am 22.1 18.3 7.5 39 7.7 SE 17 26 9 14 1017.5 1014.6 0.0
20/04:30am 22.6 18.3 7.2 37 8.2 SE 19 28 10 15 1017.0 1014.1 0.0
20/04:00am 23.0 18.4 6.7 35 8.6 SE 20 35 11 19 1016.9 1013.9 0.0
20/03:30am 23.4 18.9 7.1 35 8.7 SE 20 33 11 18 1016.6 1013.6 0.0
20/03:00am 23.7 19.3 7.3 35 8.7 SE 20 30 11 16 1016.4 1013.4 0.0
20/02:30am 23.8 19.4 7.4 35 8.8 SE 20 32 11 17 1016.2 1013.2 0.0
20/02:00am 23.9 19.6 7.1 34 8.9 SE 19 28 10 15 1016.1 1013.1 0.0
20/01:30am 24.5 19.9 6.3 31 9.6 SE 20 32 11 17 1016.2 1013.2 0.0
20/01:00am 24.9 20.0 5.2 28 10.2 SE 20 33 11 18 1016.4 1013.4 0.0
20/12:30am 25.2 20.4 5.4 28 10.3 SE 20 32 11 17 1016.4 1013.4 0.0
20/12:00am 25.2 21.1 4.3 26 10.7 SE 15 24 8 13 1016.5 1013.5 0.0
 
Date/Time
WST
Temp
°C
App
Temp
°C
Dew
Point
°C
Rel
Hum
%
Delta-T
°C
Wind Press
QNH
hPa
Press
MSL
hPa
Rain since
9am
mm
Dir  Spd
km/h
Gust
km/h
Spd
kts
Gust
kts
19/11:30pm 25.4 21.7 4.5 26 10.7 SE 13 22 7 12 1016.7 1013.7 0.0
19/11:00pm 27.8 22.9 2.1 19 12.8 SE 17 22 9 12 1016.8 1013.8 0.0
19/10:30pm 28.2 23.0 2.4 19 13.0 ESE 19 26 10 14 1016.8 1013.8 0.0
19/10:00pm 29.1 23.7 2.4 18 13.5 E 20 32 11 17 1016.8 1013.8 0.0
19/09:30pm 28.5 23.6 1.9 18 13.3 ESE 17 22 9 12 1016.8 1013.8 0.0
19/09:00pm 28.3 24.5 1.7 18 13.2 ESE 11 13 6 7 1016.7 1013.7 0.0
19/08:30pm 29.2 25.0 1.7 17 13.8 ESE 13 17 7 9 1016.6 1013.6 0.0
19/08:00pm 28.8 25.3 1.3 17 13.6 ESE 9 11 5 6 1016.3 1013.3 0.0
19/07:30pm 29.5 26.5 1.9 17 13.9 ESE 7 11 4 6 1016.0 1013.0 0.0
19/07:00pm 30.4 27.2 0.9 15 14.7 ESE 7 9 4 5 1015.5 1012.6 0.0
19/06:30pm 31.6 28.4 0.9 14 15.4 ESE 7 9 4 5 1015.1 1012.2 0.0
19/06:00pm 33.4 29.9 1.3 13 16.4 ESE 9 15 5 8 1014.7 1011.7 0.0
19/05:30pm 35.3 31.3 0.4 11 17.8 ESE 11 19 6 10 1014.3 1011.3 0.0
19/05:00pm 35.5 31.9 0.6 11 17.8 ENE 9 17 5 9 1013.9 1010.9 0.0
19/04:30pm 35.8 31.8 0.8 11 18.0 E 11 17 6 9 1013.8 1010.8 0.0
19/04:00pm 36.5 32.6 1.3 11 18.3 ESE 11 26 6 14 1013.6 1010.6 0.0
19/03:30pm 37.0 34.0 1.7 11 18.5 SSW 7 19 4 10 1013.5 1010.5 0.0
19/03:00pm 35.3 31.9 1.6 12 17.5 WSW 9 15 5 8 1013.6 1010.6 0.0
19/02:30pm 35.4 30.5 1.7 12 17.5 ESE 17 26 9 14 1013.8 1010.8 0.0
19/02:00pm 35.6 31.4 1.8 12 17.6 ESE 13 20 7 11 1014.0 1011.0 0.0
19/01:30pm 35.4 31.8 2.8 13 17.2 SSE 11 22 6 12 1014.3 1011.3 0.0
19/01:00pm 34.7 29.8 2.3 13 16.9 ESE 17 26 9 14 1014.5 1011.5 0.0
19/12:30pm 35.2 29.6 3.7 14 16.9 SE 22 37 12 20 1014.8 1011.8 0.0
19/12:00pm 34.3 28.4 4.0 15 16.2 SE 24 37 13 20 1015.2 1012.3 0.0
19/11:30am 33.4 27.9 4.2 16 15.6 SE 22 39 12 21 1015.8 1012.8 0.0
19/11:20am 33.7 27.4 3.5 15 16.0 SE 26 46 14 25 1015.9 1012.9 0.0
19/11:00am 33.1 27.6 3.9 16 15.5 ESE 22 35 12 19 1016.2 1013.2 0.0
19/10:30am 32.0 26.5 3.9 17 14.8 ESE 22 35 12 19 1016.5 1013.5 0.0
19/10:00am 30.3 23.9 3.4 18 13.9 SE 26 37 14 20 1016.9 1013.9 0.0
19/09:30am 28.7 21.6 3.5 20 13.0 ESE 30 43 16 23 1017.3 1014.4 0.0
19/09:00am 27.8 20.8 4.2 22 12.2 ESE 30 44 16 24 1017.4 1014.5 -
19/08:30am 26.5 19.4 3.7 23 11.6 SE 30 44 16 24 1017.3 1014.4 -
19/08:00am 24.8 18.1 3.5 25 10.7 SE 28 37 15 20 1017.2 1014.3 -
19/07:30am 23.8 17.9 3.7 27 10.1 SE 24 33 13 18 1017.0 1014.1 -
19/07:00am 22.4 16.3 3.0 28 9.5 SE 24 35 13 19 1016.7 1013.7 -
19/06:30am 21.3 15.9 2.6 29 9.0 SE 20 33 11 18 1016.5 1013.5 -
19/06:00am 20.6 15.2 2.4 30 8.7 SE 20 30 11 16 1016.2 1013.2 -
19/05:30am 19.7 14.8 2.1 31 8.3 SE 17 22 9 12 1016.0 1013.0 -
19/05:00am 19.0 15.2 1.5 31 8.1 SE 11 19 6 10 1015.4 1012.5 -
19/04:30am 19.0 15.2 2.0 32 8.0 SSE 11 17 6 9 1015.0 1012.0 -
19/04:00am 19.2 15.0 1.7 31 8.2 SSE 13 17 7 9 1014.6 1011.6 0.0
19/03:30am 19.5 15.2 1.0 29 8.5 SSE 13 17 7 9 1014.5 1011.5 0.0
19/03:00am 20.4 16.4 0.8 27 9.1 SSE 11 17 6 9 1014.3 1011.3 0.0
19/02:30am 21.1 17.2 0.9 26 9.4 SSE 11 22 6 12 1014.3 1011.3 0.0
19/02:00am 21.8 17.5 0.9 25 9.8 SE 13 17 7 9 1014.2 1011.2 0.0
19/01:30am 22.1 17.7 0.6 24 10.0 SE 13 20 7 11 1014.3 1011.3 0.0
19/01:00am 22.1 18.2 1.2 25 9.9 SE 11 17 6 9 1014.5 1011.5 0.0
19/12:30am 22.1 18.6 1.2 25 9.9 SE 9 15 5 8 1014.7 1011.7 0.0
19/12:00am 22.8 18.4 0.6 23 10.4 SSE 13 20 7 11 1014.6 1011.6 0.0
 
Date/Time
WST
Temp
°C
App
Temp
°C
Dew
Point
°C
Rel
Hum
%
Delta-T
°C
Wind Press
QNH
hPa
Press
MSL
hPa
Rain since
9am
mm
Dir  Spd
km/h
Gust
km/h
Spd
kts
Gust
kts
18/11:30pm 22.9 18.9 0.7 23 10.4 SSE 11 15 6 8 1015.0 1012.0 0.0
18/11:00pm 23.6 19.9 0.0 21 11.0 SSE 9 13 5 7 1015.2 1012.3 0.0
18/10:30pm 25.0 20.5 -0.2 19 11.8 SE 13 19 7 10 1015.4 1012.5 0.0
18/10:00pm 25.5 21.2 -1.3 17 12.4 SSE 11 20 6 11 1015.3 1012.4 0.0
18/09:30pm 26.1 21.8 -1.7 16 12.8 SE 11 17 6 9 1015.1 1012.2 0.0
18/09:00pm 27.0 22.4 -0.9 16 13.1 SSE 13 20 7 11 1014.9 1011.9 0.0
18/08:30pm 27.3 23.2 0.1 17 13.1 SE 11 17 6 9 1014.6 1011.6 0.0
18/08:00pm 28.4 24.2 -0.7 15 13.9 SSE 11 17 6 9 1014.3 1011.3 0.0
18/07:30pm 28.7 24.3 -2.4 13 14.4 SSE 11 17 6 9 1013.9 1010.9 0.0
18/07:00pm 29.6 25.4 -0.7 14 14.6 SSE 11 13 6 7 1013.3 1010.4 0.0
18/06:30pm 30.8 26.2 -0.8 13 15.3 SSE 13 15 7 8 1012.9 1009.9 0.0
18/06:00pm 32.0 28.6 -0.9 12 16.1 SSE 7 15 4 8 1012.4 1009.4 0.0
18/05:30pm 34.1 30.9 -0.5 11 17.2 SW 6 9 3 5 1012.2 1009.2 0.0
18/05:00pm 34.0 30.2 -0.6 11 17.2 S 9 20 5 11 1011.8 1008.8 0.0
18/04:30pm 34.8 31.7 0.0 11 17.5 SSW 6 11 3 6 1011.5 1008.5 0.0
18/04:00pm 34.1 30.9 0.7 12 17.0 SSE 7 19 4 10 1011.5 1008.5 0.0
18/03:30pm 34.8 30.5 1.2 12 17.3 SSW 13 24 7 13 1011.4 1008.4 0.0
18/03:00pm 34.1 29.4 0.7 12 17.0 SE 15 30 8 16 1011.5 1008.5 0.0
18/02:30pm 34.2 30.2 0.8 12 17.0 SSE 11 26 6 14 1011.5 1008.5 0.0
18/02:00pm 33.8 28.8 1.6 13 16.6 SE 17 28 9 15 1011.8 1008.8 0.0
18/01:30pm 33.8 29.4 2.6 14 16.3 SSE 15 28 8 15 1012.1 1009.1 0.0
18/01:00pm 33.0 29.0 2.9 15 15.7 SE 13 26 7 14 1012.5 1009.5 0.0
18/12:30pm 32.3 27.2 3.3 16 15.2 SE 19 33 10 18 1013.0 1010.0 0.0
18/12:00pm 31.1 26.0 3.2 17 14.5 SSE 19 32 10 17 1013.5 1010.5 0.0
18/11:30am 30.7 25.4 2.9 17 14.3 SE 20 30 11 16 1014.0 1011.0 0.0
18/11:00am 30.4 24.8 3.4 18 14.0 SSE 22 35 12 19 1014.3 1011.3 0.0
18/10:30am 29.6 24.0 3.6 19 13.5 SSE 22 37 12 20 1014.7 1011.7 0.0
18/10:00am 28.9 23.0 3.7 20 13.0 SSE 24 39 13 21 1015.0 1012.0 0.0
18/09:30am 27.4 20.7 3.8 22 12.1 SSE 28 37 15 20 1015.3 1012.4 0.0
18/09:00am 26.4 19.7 3.6 23 11.6 SSE 28 39 15 21 1015.3 1012.4 0.0
18/08:30am 25.4 18.7 3.4 24 11.1 SSE 28 39 15 21 1015.3 1012.4 0.0
18/08:00am 24.4 17.6 3.1 25 10.6 SSE 28 41 15 22 1015.2 1012.3 0.0
18/07:30am 23.8 18.1 2.6 25 10.4 SSE 22 39 12 21 1014.9 1011.9 0.0
18/07:00am 23.2 16.9 1.5 24 10.4 SSE 24 39 13 21 1014.7 1011.7 0.0
18/06:30am 22.2 17.2 1.3 25 9.9 SSE 17 26 9 14 1014.4 1011.4 0.0
18/06:00am 21.0 15.9 0.8 26 9.4 SSE 17 22 9 12 1014.0 1011.0 0.0
18/05:30am 20.5 16.1 0.4 26 9.2 S 13 19 7 10 1013.3 1010.4 0.0
18/05:00am 21.0 16.3 0.8 26 9.4 S 15 24 8 13 1013.2 1010.3 0.0
18/04:30am 21.5 17.1 0.1 24 9.8 SSE 13 19 7 10 1012.6 1009.6 0.0
18/04:00am 22.2 17.4 0.1 23 10.2 S 15 20 8 11 1012.4 1009.4 0.0
18/03:30am 23.0 18.2 0.2 22 10.6 S 15 22 8 12 1011.9 1008.9 0.0
18/03:00am 23.6 18.9 0.7 22 10.8 S 15 22 8 12 1011.6 1008.6 0.0
18/02:30am 24.3 19.6 1.2 22 11.1 S 15 22 8 12 1011.6 1008.6 0.0
18/02:00am 24.8 19.9 2.3 23 11.1 S 17 22 9 12 1011.5 1008.5 0.0
18/01:30am 25.0 21.4 3.0 24 11.0 SSE 11 15 6 8 1011.5 1008.5 0.0
18/01:00am 25.2 21.9 2.6 23 11.2 SSE 9 15 5 8 1011.4 1008.4 0.0
18/12:30am 25.8 22.5 2.5 22 11.6 S 9 13 5 7 1011.6 1008.6 0.0
18/12:00am 26.4 23.1 2.3 21 12.0 S 9 13 5 7 1011.7 1008.7 0.0
 
Date/Time
WST
Temp
°C
App
Temp
°C
Dew
Point
°C
Rel
Hum
%
Delta-T
°C
Wind Press
QNH
hPa
Press
MSL
hPa
Rain since
9am
mm
Dir  Spd
km/h
Gust
km/h
Spd
kts
Gust
kts
17/11:30pm 27.6 24.3 2.6 20 12.6 SSW 9 13 5 7 1012.1 1009.1 0.0
17/11:00pm 27.4 24.7 2.5 20 12.5 SSW 6 7 3 4 1012.0 1009.0 0.0
17/10:30pm 27.3 24.9 2.4 20 12.5 SW 4 9 2 5 1012.0 1009.0 0.0
17/10:00pm 28.6 25.6 2.0 18 13.3 WSW 7 11 4 6 1011.9 1008.9 0.0
17/09:30pm 30.2 25.8 2.5 17 14.1 W 15 20 8 11 1011.7 1008.7 0.0
17/09:00pm 29.5 26.4 5.6 22 12.8 WNW 11 17 6 9 1011.0 1008.0 0.0
17/08:30pm 30.8 26.9 5.3 20 13.7 WNW 15 20 8 11 1010.7 1007.7 0.0
17/08:00pm 31.7 27.2 6.0 20 14.0 NW 19 24 10 13 1010.4 1007.4 0.0
17/07:30pm 32.0 28.5 7.0 21 13.9 NW 15 22 8 12 1010.0 1007.0 0.0
17/07:00pm 32.7 28.4 6.8 20 14.4 WNW 19 26 10 14 1009.6 1006.6 0.0
17/06:30pm 33.1 28.5 6.4 19 14.8 NW 20 32 11 17 1009.1 1006.0 0.0
17/06:00pm 33.8 29.1 6.2 18 15.3 WNW 20 32 11 17 1008.5 1005.5 0.0
17/05:30pm 34.3 29.0 6.6 18 15.5 NW 24 35 13 19 1008.1 1005.1 0.0
17/05:00pm 34.9 29.3 7.1 18 15.7 WNW 26 44 14 24 1007.7 1004.7 0.0

Other Formats:

Comma delimited format used in spreadsheet applications
http://www.bom.gov.au/fwo/IDW60801/IDW60801.99736.axf

JavaScript Object Notation format (JSON) in row-major order
http://www.bom.gov.au/fwo/IDW60801/IDW60801.99736.json